• Join FlightAware (Why Join?)
  • Login
  • US Flag 
11:37AM EDT


 

Airport Tracker/Info


-or-


 

Live Flight TrackerFlight Track Log ✈ LOF3416 ✈ 07-Jul-2013 ✈ KORD - KSGF

Flight Track Log - Related Links

Times and Time Zones

All times are in EDT time to prevent confusion due to time zone crossing. See the LOF3416 flight status page for this flight to view local times or setup timezone preferences in your user account.

Time Position Orientation Groundspeed Altitude Reporting Facility
EDT Latitude Longitude Course Direction KTS MPH feet Rate Location/Type
05:52PM 41.9333 -87.9167 166° South 167 192 1,800  Level Chicago TRACON
05:53PM 41.8833 -87.9000 166° South 187 215 3,700 1,740 Climbing Chicago TRACON
05:55PM 41.8150 -87.8936 176° South 222 255 5,600 1,800 Climbing Chicago Center
05:56PM 41.7481 -87.9319 203° Southwest 267 307 7,700 1,980 Climbing Chicago Center
05:57PM 41.6803 -87.9817 209° Southwest 278 320 9,700 1,740 Climbing Chicago Center
05:58PM 41.6058 -88.0356 208° Southwest 303 349 11,300 1,740 Climbing Chicago Center
05:59PM 41.5283 -88.0908 208° Southwest 320 368 13,300 1,320 Climbing Chicago Center
06:00PM 41.4292 -88.1622 208° Southwest 360 414 14,100 840 Climbing Chicago Center
06:01PM 41.3328 -88.2142 202° Southwest 385 443 15,100 960 Climbing Chicago Center
06:02PM 41.2303 -88.2592 198° South 392 451 16,100 1,020 Climbing Chicago Center
06:03PM 41.1053 -88.3150 199° South 395 455 17,300 1,080 Climbing Chicago Center
06:04PM 40.9986 -88.3639 199° South 404 465 18,400 1,020 Climbing Chicago Center
06:05PM 40.8900 -88.4114 198° South 411 473 19,400 960 Climbing Chicago Center
06:06PM 40.7808 -88.4614 199° South 417 480 20,400 960 Climbing Chicago Center
06:07PM 40.6703 -88.5100 198° South 420 483 21,400 1,080 Climbing Chicago Center
06:08PM 40.5367 -88.5700 199° South 425 489 22,700 1,020 Climbing Chicago Center
06:09PM 40.4419 -88.6114 198° South 423 487 23,600 960 Climbing Chicago Center
06:10PM 40.3225 -88.7011 210° Southwest 413 475 24,800 1,020 Climbing Chicago Center
06:11PM 40.2475 -88.8169 230° Southwest 416 479 25,800 540 Climbing Chicago Center
06:12PM 40.1747 -88.9350 231° Southwest 417 480 26,000 60 Climbing Chicago Center
06:13PM 40.0978 -89.0611 231° Southwest 437 503 26,000  Level Chicago Center
06:14PM 40.0319 -89.1653 230° Southwest 449 517 26,000  Level Kansas City Center
06:15PM 39.9497 -89.2975 231° Southwest 460 529 26,000  Level Kansas City Center
06:16PM 39.8672 -89.4331 232° Southwest 470 541 26,000  Level Kansas City Center
06:17PM 39.7664 -89.5944 231° Southwest 475 547 26,000  Level Kansas City Center
06:18PM 39.6825 -89.7286 231° Southwest 477 549 26,000 360 Level Kansas City Center
06:19PM 39.6017 -89.8597 231° Southwest 473 544 26,800 840 Climbing Kansas City Center
06:20PM 39.5219 -89.9839 230° Southwest 458 527 27,800 540 Climbing Kansas City Center
06:21PM 39.4442 -90.1072 231° Southwest 447 514 28,000 60 Climbing Kansas City Center
06:22PM 39.3628 -90.2331 230° Southwest 453 521 28,000  Level Kansas City Center
06:23PM 39.2689 -90.3825 231° Southwest 451 519 28,000  Level Kansas City Center
06:24PM 39.1908 -90.5044 230° Southwest 446 513 28,000  Level Kansas City Center
06:25PM 39.1139 -90.6239 230° Southwest 440 506 28,000  Level Kansas City Center
06:26PM 39.0367 -90.7422 230° Southwest 437 503 28,000  Level Kansas City Center
06:27PM 38.9564 -90.8678 231° Southwest 454 522 28,000  Level Kansas City Center
06:29PM 38.8578 -91.0178 230° Southwest 462 532 28,000  Level Kansas City Center
06:30PM 38.7758 -91.1433 230° Southwest 462 532 28,000  Level Kansas City Center
06:31PM 38.6942 -91.2678 230° Southwest 462 532 28,000  Level Kansas City Center
06:32PM 38.6036 -91.4050 230° Southwest 464 534 28,000 -420 Level Kansas City Center
06:33PM 38.5217 -91.5275 229° Southwest 457 526 27,200 -900 Descending Kansas City Center
06:34PM 38.4411 -91.6483 230° Southwest 448 516 26,200 -1,020 Descending Kansas City Center
06:35PM 38.3597 -91.7700 230° Southwest 449 517 25,200 -1,020 Descending Kansas City Center
06:36PM 38.2778 -91.8894 229° Southwest 449 517 24,200 -1,020 Descending Kansas City Center
06:37PM 38.1794 -92.0356 229° Southwest 451 519 23,100 -1,020 Descending Kansas City Center
06:38PM 38.1067 -92.1436 229° Southwest 452 520 22,200 -960 Descending Kansas City Center
06:39PM 38.0256 -92.2622 229° Southwest 450 518 21,200 -1,080 Descending Kansas City Center
06:40PM 37.9283 -92.4033 229° Southwest 448 516 20,000 -1,020 Descending Kansas City Center
06:41PM 37.8519 -92.5144 229° Southwest 434 499 19,100 -1,020 Descending Kansas City Center
06:42PM 37.7811 -92.6219 230° Southwest 408 470 18,000 -1,560 Descending Kansas City Center
06:43PM 37.7086 -92.7261 229° Southwest 400 460 15,900 -2,400 Descending Kansas City Center
06:44PM 37.6358 -92.8311 229° Southwest 391 450 13,100 -2,820 Descending Kansas City Center
06:45PM 37.5706 -92.9253 229° Southwest 374 430 10,100 -2,340 Descending Kansas City Center
06:46PM 37.5169 -93.0253 236° Southwest 313 360 8,300 -1,680 Descending Kansas City Center
06:47PM 37.4775 -93.1017 237° Southwest 281 323 6,700 -1,860 Descending Kansas City Center
06:48PM 37.4414 -93.1694 236° Southwest 252 290 4,500 -1,800 Descending Kansas City Center
06:49PM 37.4039 -93.2425 237° Southwest 246 283 3,000 -780 Descending Kansas City Center
06:50PM 37.3675 -93.3125 237° Southwest 243 280 3,000 -60 Level Kansas City Center
06:51PM 37.3228 -93.3461 211° Southwest 208 239 2,900 -480 Descending Kansas City Center
06:52PM 37.2856 -93.3664 203° Southwest 170 196 2,100 -780 Descending Kansas City Center
06:54PM 37.2457 -93.3886 219° Southwest  Level Estimated
07:01PM 37.2457 -93.3886 219° Southwest  Level Estimated
07:02PM 37.2457 -93.3886 219° Southwest  Level Estimated
07:03PM 37.2457 -93.3886 219° Southwest  Level Estimated